createdAt,value
2022-08-23T00:02:26.656Z,3.13
2022-08-23T00:05:08.198Z,3.10
2022-08-23T00:07:38.860Z,3.00
2022-08-23T00:10:08.209Z,3.70
2022-08-23T00:12:35.259Z,2.88
2022-08-23T00:15:02.071Z,4.10
2022-08-23T00:17:34.763Z,3.00
2022-08-23T00:20:08.416Z,3.40
2022-08-23T00:22:36.186Z,3.17
2022-08-23T00:25:04.100Z,3.30
2022-08-23T00:27:30.865Z,3.03
2022-08-23T00:29:58.304Z,3.38
2022-08-23T00:32:31.872Z,2.83
2022-08-23T00:35:00.413Z,3.65
2022-08-23T00:37:28.786Z,3.35
2022-08-23T00:39:55.682Z,3.25
2022-08-23T00:42:53.080Z,2.88
2022-08-23T00:45:46.308Z,3.22
2022-08-23T00:48:14.427Z,3.40
2022-08-23T00:50:49.912Z,3.00
2022-08-23T00:53:20.791Z,3.20
2022-08-23T00:55:50.886Z,3.70
2022-08-23T00:58:19.713Z,3.08
2022-08-23T01:00:47.684Z,3.00
2022-08-23T01:03:15.072Z,3.15
2022-08-23T01:05:48.023Z,3.17
2022-08-23T01:08:15.083Z,3.08
2022-08-23T01:10:47.429Z,3.50
2022-08-23T01:13:20.318Z,3.38
2022-08-23T01:15:51.428Z,3.53
2022-08-23T01:18:21.246Z,3.78
2022-08-23T01:21:10.801Z,3.42
2022-08-23T01:23:53.564Z,3.10
2022-08-23T01:26:22.268Z,3.58
2022-08-23T01:28:49.832Z,3.25
2022-08-23T01:31:18.592Z,2.90
2022-08-23T01:33:49.462Z,3.20
2022-08-23T01:36:17.191Z,2.97
2022-08-23T01:38:43.974Z,3.28
2022-08-23T01:41:10.770Z,3.22
2022-08-23T01:43:37.900Z,2.95
2022-08-23T01:46:17.920Z,2.90
2022-08-23T01:48:46.697Z,3.05
2022-08-23T01:51:16.735Z,3.20
2022-08-23T01:53:44.247Z,2.83
2022-08-23T01:56:11.049Z,3.00
2022-08-23T01:58:37.829Z,2.67
2022-08-23T02:01:05.668Z,3.20
2022-08-23T02:03:33.534Z,3.20
2022-08-23T02:06:00.762Z,2.95
2022-08-23T02:08:46.414Z,2.92
2022-08-23T02:11:17.129Z,2.92
2022-08-23T02:13:45.139Z,3.28
2022-08-23T02:16:15.013Z,3.70
2022-08-23T02:18:41.933Z,2.85
2022-08-23T02:21:10.501Z,3.33
2022-08-23T02:23:37.473Z,3.15
2022-08-23T02:26:04.259Z,3.25
2022-08-23T02:28:31.043Z,2.90
2022-08-23T02:30:57.783Z,3.13
2022-08-23T02:33:24.926Z,3.30
2022-08-23T02:35:51.774Z,3.35
2022-08-23T02:38:18.588Z,3.05
2022-08-23T02:40:45.513Z,2.85
2022-08-23T02:43:12.259Z,3.05
2022-08-23T02:45:39.108Z,3.08
2022-08-23T02:48:06.404Z,3.28
2022-08-23T02:50:33.684Z,3.00
2022-08-23T02:53:00.578Z,3.13
2022-08-23T02:55:28.251Z,3.58
2022-08-23T02:57:55.343Z,3.03
2022-08-23T03:00:22.721Z,3.20
2022-08-23T03:02:49.503Z,3.15
2022-08-23T03:05:16.894Z,2.92
2022-08-23T03:07:44.473Z,3.25
2022-08-23T03:10:12.163Z,3.53
2022-08-23T03:12:39.164Z,3.20
2022-08-23T03:15:06.919Z,3.13
2022-08-23T03:17:34.921Z,3.30
2022-08-23T03:20:01.699Z,3.42
2022-08-23T03:22:28.529Z,3.25
2022-08-23T03:24:55.331Z,3.38
2022-08-23T03:27:22.290Z,4.05
2022-08-23T03:29:49.032Z,3.28
2022-08-23T03:32:16.048Z,3.20
2022-08-23T03:34:44.062Z,3.45
2022-08-23T03:37:10.867Z,3.25
2022-08-23T03:39:38.021Z,4.00
2022-08-23T03:42:05.158Z,3.63
2022-08-23T03:44:32.807Z,3.53
2022-08-23T03:46:59.596Z,3.30
2022-08-23T03:49:26.747Z,3.72
2022-08-23T03:51:53.583Z,3.50
2022-08-23T03:54:20.707Z,3.97
2022-08-23T03:56:59.763Z,3.50
2022-08-23T03:59:28.197Z,3.50
2022-08-23T04:01:55.199Z,3.67
2022-08-23T04:04:22.302Z,3.42
2022-08-23T04:06:49.235Z,3.13
2022-08-23T04:09:16.846Z,3.53
2022-08-23T04:11:44.594Z,4.60
2022-08-23T04:14:13.037Z,3.97
2022-08-23T04:16:40.475Z,3.50
2022-08-23T04:19:09.078Z,3.47
2022-08-23T04:21:37.750Z,3.35
2022-08-23T04:24:05.142Z,3.30
2022-08-23T04:26:33.676Z,3.28
2022-08-23T04:29:00.895Z,3.45
2022-08-23T04:31:29.320Z,3.35
2022-08-23T04:34:02.411Z,3.45
2022-08-23T04:36:37.016Z,3.17
2022-08-23T04:39:04.781Z,3.70
2022-08-23T04:41:50.247Z,3.70
2022-08-23T04:44:17.579Z,3.58
2022-08-23T04:46:44.643Z,3.35
2022-08-23T04:49:12.136Z,3.65
2022-08-23T04:51:39.150Z,3.78
2022-08-23T04:54:07.846Z,3.38
2022-08-23T04:56:35.431Z,3.15
2022-08-23T04:59:03.153Z,3.40
2022-08-23T05:01:30.186Z,3.75
2022-08-23T05:03:57.201Z,3.83
2022-08-23T05:06:24.427Z,3.65
2022-08-23T05:08:51.187Z,3.35
2022-08-23T05:11:19.050Z,3.30
2022-08-23T05:13:46.221Z,3.80
2022-08-23T05:16:14.100Z,3.50
2022-08-23T05:18:41.330Z,3.67
2022-08-23T05:21:08.673Z,3.30
2022-08-23T05:23:35.481Z,3.78
2022-08-23T05:26:02.271Z,3.25
2022-08-23T05:28:34.505Z,3.72
2022-08-23T05:31:06.016Z,3.78
2022-08-23T05:33:38.710Z,3.30
2022-08-23T05:36:06.709Z,3.70
2022-08-23T05:38:34.336Z,3.45
2022-08-23T05:41:05.274Z,3.85
2022-08-23T05:43:35.022Z,3.63
2022-08-23T05:46:12.641Z,3.17
2022-08-23T05:48:47.022Z,3.33
2022-08-23T05:53:45.534Z,3.75
2022-08-23T05:56:25.692Z,4.32
2022-08-23T05:58:59.093Z,3.92
2022-08-23T06:01:28.041Z,3.55
2022-08-23T06:03:54.998Z,3.50
2022-08-23T06:06:22.231Z,3.33
2022-08-23T06:09:07.386Z,3.63
2022-08-23T06:11:34.629Z,3.42
2022-08-23T06:14:03.753Z,3.70
2022-08-23T06:16:33.415Z,3.60
2022-08-23T06:19:04.457Z,3.58
2022-08-23T06:21:32.112Z,3.47
2022-08-23T06:23:58.930Z,3.30
2022-08-23T06:26:35.101Z,3.63
2022-08-23T06:29:06.354Z,3.47
2022-08-23T06:31:45.559Z,3.28
2022-08-23T06:34:17.760Z,3.50
2022-08-23T06:36:46.247Z,3.13
2022-08-23T06:39:14.098Z,3.13
2022-08-23T06:41:41.185Z,3.72
2022-08-23T06:44:08.532Z,3.30
2022-08-23T06:46:36.248Z,2.90
2022-08-23T06:49:05.404Z,2.95
2022-08-23T06:51:39.531Z,3.47
2022-08-23T06:54:10.067Z,3.45
2022-08-23T06:56:40.989Z,3.00
2022-08-23T06:59:08.248Z,3.33
2022-08-23T07:01:48.192Z,3.13
2022-08-23T07:04:19.306Z,3.00
2022-08-23T07:06:46.760Z,3.30
2022-08-23T07:09:14.088Z,2.85
2022-08-23T07:11:41.622Z,3.78
2022-08-23T07:14:11.948Z,3.45
2022-08-23T07:16:41.930Z,3.17
2022-08-23T07:19:09.239Z,3.35
2022-08-23T07:21:36.873Z,2.85
2022-08-23T07:24:03.921Z,2.90
2022-08-23T07:26:31.734Z,3.22
2022-08-23T07:28:58.731Z,3.20
2022-08-23T07:31:30.783Z,3.20
2022-08-23T07:34:02.935Z,3.30
2022-08-23T07:36:32.517Z,2.70
2022-08-23T07:39:00.022Z,3.25
2022-08-23T07:41:31.102Z,2.80
2022-08-23T07:44:04.141Z,2.90
2022-08-23T07:46:33.109Z,3.10
2022-08-23T07:49:02.724Z,3.03
2022-08-23T07:51:32.289Z,2.95
2022-08-23T07:54:05.408Z,2.95
2022-08-23T07:56:32.337Z,3.20
2022-08-23T07:58:59.142Z,3.20
2022-08-23T08:01:28.045Z,3.10
2022-08-23T08:03:56.981Z,3.20
2022-08-23T08:06:27.874Z,2.72
2022-08-23T08:08:55.235Z,3.38
2022-08-23T08:11:30.787Z,3.03
2022-08-23T08:14:01.960Z,2.85
2022-08-23T08:16:33.583Z,3.30
2022-08-23T08:19:02.197Z,2.80
2022-08-23T08:21:29.694Z,3.03
2022-08-23T08:23:58.767Z,2.92
2022-08-23T08:26:27.469Z,3.03
2022-08-23T08:28:56.494Z,3.20
2022-08-23T08:31:24.987Z,3.03
2022-08-23T08:33:52.184Z,3.33
2022-08-23T08:36:39.184Z,3.30
2022-08-23T08:39:10.886Z,3.10
2022-08-23T08:42:05.548Z,3.28
2022-08-23T08:44:46.186Z,3.63
2022-08-23T08:47:36.802Z,3.42
2022-08-23T08:50:06.581Z,3.47
2022-08-23T08:52:38.249Z,3.25
2022-08-23T08:55:05.164Z,3.70
2022-08-23T08:57:40.086Z,3.35
2022-08-23T09:00:15.438Z,3.38
2022-08-23T09:02:43.250Z,3.72
2022-08-23T09:05:35.420Z,3.40
2022-08-23T09:08:28.542Z,3.72
2022-08-23T09:11:46.104Z,3.92
2022-08-23T09:14:37.870Z,3.72
2022-08-23T09:17:26.444Z,3.88
2022-08-23T09:19:58.415Z,3.45
2022-08-23T09:22:34.036Z,3.40
2022-08-23T09:25:00.857Z,3.40
2022-08-23T09:27:27.875Z,3.75
2022-08-23T09:30:01.290Z,3.65
2022-08-23T09:32:38.103Z,3.78
2022-08-23T09:35:17.211Z,3.63
2022-08-23T09:37:54.918Z,3.95
2022-08-23T09:40:33.937Z,3.45
2022-08-23T09:43:15.044Z,3.50
2022-08-23T09:45:50.522Z,3.22
2022-08-23T09:48:36.132Z,3.53
2022-08-23T09:51:18.214Z,3.50
2022-08-23T09:53:53.425Z,3.53
2022-08-23T09:56:26.414Z,3.72
2022-08-23T09:58:54.440Z,3.47
2022-08-23T10:01:25.942Z,3.53
2022-08-23T10:04:08.569Z,3.53
2022-08-23T10:06:35.414Z,3.70
2022-08-23T10:09:05.111Z,3.53
2022-08-23T10:11:45.994Z,3.30
2022-08-23T10:14:20.969Z,3.35
2022-08-23T10:17:19.692Z,3.47
2022-08-23T10:20:08.905Z,3.25
2022-08-23T10:23:11.060Z,3.40
2022-08-23T10:25:43.442Z,3.47
2022-08-23T10:28:45.697Z,3.47
2022-08-23T10:31:15.768Z,3.17
2022-08-23T10:33:54.940Z,3.05
2022-08-23T10:36:33.786Z,3.45
2022-08-23T10:39:21.894Z,3.55
2022-08-23T10:42:11.172Z,2.88
2022-08-23T10:44:59.448Z,3.60
2022-08-23T10:47:42.051Z,3.10
2022-08-23T10:50:13.596Z,2.90
2022-08-23T10:52:57.754Z,2.88
2022-08-23T10:55:39.180Z,2.85
2022-08-23T10:58:12.119Z,2.85
2022-08-23T11:00:41.121Z,2.50
2022-08-23T11:03:12.630Z,2.70
2022-08-23T11:05:40.869Z,2.45
2022-08-23T11:08:30.086Z,2.60
2022-08-23T11:10:57.165Z,2.67
2022-08-23T11:13:31.656Z,2.58
2022-08-23T11:16:01.162Z,2.90
2022-08-23T11:18:47.779Z,2.75
2022-08-23T11:21:18.013Z,3.03
2022-08-23T11:23:47.392Z,2.45
2022-08-23T11:26:37.832Z,2.53
2022-08-23T11:29:07.374Z,2.20
2022-08-23T11:31:42.824Z,2.42
2022-08-23T11:34:20.378Z,2.63
2022-08-23T11:37:18.903Z,2.42
2022-08-23T11:39:58.011Z,2.60
2022-08-23T11:42:30.128Z,3.28
2022-08-23T11:44:56.970Z,2.50
2022-08-23T11:47:41.614Z,2.13
2022-08-23T11:50:19.809Z,2.50
2022-08-23T11:52:55.779Z,3.08
2022-08-23T11:55:37.533Z,2.50
2022-08-23T11:58:26.271Z,2.70
2022-08-23T12:01:09.770Z,2.30
2022-08-23T12:03:52.554Z,2.60
2022-08-23T12:06:19.382Z,2.50
2022-08-23T12:09:01.667Z,2.78
2022-08-23T12:11:56.812Z,2.78
2022-08-23T12:14:36.306Z,2.35
2022-08-23T12:17:26.204Z,2.25
2022-08-23T12:19:59.101Z,2.58
2022-08-23T12:22:51.606Z,2.53
2022-08-23T12:25:21.624Z,2.20
2022-08-23T12:27:55.415Z,2.47
2022-08-23T12:30:38.708Z,2.17
2022-08-23T12:33:40.222Z,2.30
2022-08-23T12:36:19.415Z,2.42
2022-08-23T12:38:53.721Z,2.30
2022-08-23T12:41:24.364Z,2.10
2022-08-23T12:44:03.209Z,2.30
2022-08-23T12:46:39.730Z,2.20
2022-08-23T12:49:09.362Z,2.60
2022-08-23T12:51:51.984Z,2.20
2022-08-23T12:54:34.841Z,2.10
2022-08-23T12:57:09.792Z,2.30
2022-08-23T13:00:16.092Z,2.30
2022-08-23T13:02:51.864Z,2.35
2022-08-23T13:05:38.253Z,2.10
2022-08-23T13:08:09.436Z,2.20
2022-08-23T13:10:39.090Z,2.55
2022-08-23T13:13:08.572Z,2.30
2022-08-23T13:16:26.295Z,2.15
2022-08-23T13:18:56.120Z,2.20
2022-08-23T13:21:23.020Z,1.90
2022-08-23T13:23:52.178Z,2.10
2022-08-23T13:26:25.138Z,2.10
2022-08-23T13:29:11.041Z,2.30
2022-08-23T13:32:03.386Z,2.10
2022-08-23T13:34:39.859Z,2.22
2022-08-23T13:37:19.838Z,1.75
2022-08-23T13:39:55.907Z,2.08
2022-08-23T13:42:36.757Z,2.00
2022-08-23T13:45:14.821Z,1.92
2022-08-23T13:47:48.114Z,2.08
2022-08-23T13:53:11.558Z,2.15
2022-08-23T13:55:31.885Z,2.00
2022-08-23T13:57:59.075Z,2.28
2022-08-23T14:00:26.373Z,2.20
2022-08-23T14:02:53.202Z,2.10
2022-08-23T14:05:22.341Z,2.10
2022-08-23T14:07:52.891Z,2.47
2022-08-23T14:10:22.482Z,2.20
2022-08-23T14:12:52.295Z,2.17
2022-08-23T14:15:19.748Z,2.10
2022-08-23T14:17:52.122Z,2.20
2022-08-23T14:20:44.102Z,2.27
2022-08-23T14:23:12.036Z,2.08
2022-08-23T14:25:40.133Z,2.00
2022-08-23T14:28:06.970Z,1.77
2022-08-23T14:30:36.694Z,2.03
2022-08-23T14:33:04.352Z,2.05
2022-08-23T14:35:31.680Z,2.00
2022-08-23T14:38:05.825Z,2.00
2022-08-23T14:40:35.006Z,2.00
2022-08-23T14:43:02.032Z,1.73
2022-08-23T14:45:29.028Z,1.98
2022-08-23T14:47:55.889Z,2.05
2022-08-23T14:50:22.847Z,2.00
2022-08-23T14:52:49.682Z,1.88
2022-08-23T14:55:16.848Z,2.00
2022-08-23T14:57:43.703Z,2.00
2022-08-23T15:00:15.051Z,1.90
2022-08-23T15:02:46.709Z,2.22
2022-08-23T15:05:14.805Z,1.95
2022-08-23T15:07:41.677Z,2.00
2022-08-23T15:10:10.132Z,2.00
2022-08-23T15:15:25.334Z,2.10
2022-08-23T15:17:53.789Z,1.88
2022-08-23T15:20:25.488Z,1.75
2022-08-23T15:22:55.256Z,1.90
2022-08-23T15:25:23.324Z,1.83
2022-08-23T15:27:51.349Z,1.98
2022-08-23T15:30:18.426Z,1.65
2022-08-23T15:32:52.294Z,1.90
2022-08-23T15:35:20.701Z,1.90
2022-08-23T15:37:48.656Z,1.77
2022-08-23T15:40:16.056Z,1.83
2022-08-23T15:42:42.926Z,1.73
2022-08-23T15:45:10.257Z,2.10
2022-08-23T15:47:51.549Z,1.90
2022-08-23T15:50:20.934Z,1.75
2022-08-23T15:52:47.733Z,1.80
2022-08-23T15:55:15.664Z,2.00
2022-08-23T15:57:47.530Z,1.70
2022-08-23T16:00:17.608Z,1.75
2022-08-23T16:03:19.557Z,1.80
2022-08-23T16:05:32.353Z,1.85
2022-08-23T16:07:59.923Z,1.90
2022-08-23T16:10:28.322Z,1.63
2022-08-23T16:12:55.514Z,1.65
2022-08-23T16:15:22.746Z,1.70
2022-08-23T16:17:49.791Z,1.65
2022-08-23T16:20:17.630Z,1.58
2022-08-23T16:22:44.466Z,1.80
2022-08-23T16:25:11.474Z,1.63
2022-08-23T16:27:38.418Z,1.95
2022-08-23T16:30:06.992Z,1.52
2022-08-23T16:32:33.792Z,1.60
2022-08-23T16:35:00.576Z,1.60
2022-08-23T16:37:27.358Z,1.98
2022-08-23T16:39:54.250Z,1.65
2022-08-23T16:42:21.138Z,1.45
2022-08-23T16:44:47.907Z,1.73
2022-08-23T16:47:15.944Z,1.70
2022-08-23T16:49:43.550Z,1.88
2022-08-23T16:52:11.575Z,2.03
2022-08-23T16:54:38.878Z,1.67
2022-08-23T16:57:06.226Z,1.90
2022-08-23T16:59:36.135Z,2.17
2022-08-23T17:02:11.170Z,2.10
2022-08-23T17:04:38.358Z,2.20
2022-08-23T17:07:05.212Z,2.13
2022-08-23T17:09:32.112Z,2.08
2022-08-23T17:11:58.959Z,2.00
2022-08-23T17:14:26.223Z,2.00
2022-08-23T17:16:53.238Z,2.30
2022-08-23T17:19:20.161Z,2.10
2022-08-23T17:21:47.112Z,2.00
2022-08-23T17:24:14.007Z,2.00
2022-08-23T17:26:40.884Z,2.28
2022-08-23T17:29:09.436Z,1.90
2022-08-23T17:31:36.992Z,2.00
2022-08-23T17:34:04.500Z,1.90
2022-08-23T17:36:35.966Z,1.70
2022-08-23T17:39:07.256Z,1.90
2022-08-23T17:41:35.824Z,2.00
2022-08-23T17:44:04.293Z,1.90
2022-08-23T17:46:33.844Z,1.90
2022-08-23T17:49:00.693Z,2.20
2022-08-23T17:51:28.086Z,1.90
2022-08-23T17:53:54.897Z,1.70
2022-08-23T17:56:21.676Z,1.70
2022-08-23T17:58:48.671Z,2.15
2022-08-23T18:01:15.555Z,1.98
2022-08-23T18:03:42.539Z,1.80
2022-08-23T18:06:16.198Z,2.10
2022-08-23T18:08:46.074Z,2.17
2022-08-23T18:11:15.673Z,1.70
2022-08-23T18:13:42.890Z,2.47
2022-08-23T18:16:09.767Z,1.73
2022-08-23T18:18:37.248Z,1.70
2022-08-23T18:21:06.320Z,1.70
2022-08-23T18:23:33.332Z,1.60
2022-08-23T18:26:06.383Z,1.92
2022-08-23T18:28:33.272Z,1.90
2022-08-23T18:31:03.523Z,1.92
2022-08-23T18:33:47.097Z,2.15
2022-08-23T18:36:15.643Z,1.90
2022-08-23T18:38:42.508Z,2.00
2022-08-23T18:41:09.742Z,2.17
2022-08-23T18:43:37.521Z,1.90
2022-08-23T18:46:05.524Z,1.83
2022-08-23T18:48:33.023Z,1.73
2022-08-23T18:51:00.241Z,1.77
2022-08-23T18:53:28.146Z,2.00
2022-08-23T18:55:55.044Z,2.00
2022-08-23T18:58:22.916Z,2.30
2022-08-23T19:00:51.111Z,2.15
2022-08-23T19:03:18.345Z,2.58
2022-08-23T19:05:45.150Z,2.30
2022-08-23T19:08:13.156Z,2.25
2022-08-23T19:10:41.548Z,2.35
2022-08-23T19:13:09.403Z,2.60
2022-08-23T19:15:37.372Z,2.58
2022-08-23T19:18:04.600Z,2.30
2022-08-23T19:20:32.427Z,2.38
2022-08-23T19:22:59.434Z,2.38
2022-08-23T19:25:27.035Z,2.33
2022-08-23T19:27:54.245Z,2.20
2022-08-23T19:30:21.045Z,2.60
2022-08-23T19:32:47.852Z,2.70
2022-08-23T19:35:14.713Z,2.60
2022-08-23T19:37:41.667Z,2.40
2022-08-23T19:40:09.171Z,2.83
2022-08-23T19:42:37.808Z,3.42
2022-08-23T19:45:06.969Z,2.72
2022-08-23T19:47:34.784Z,2.90
2022-08-23T19:50:04.113Z,3.08
2022-08-23T19:52:31.999Z,2.88
2022-08-23T19:55:05.749Z,2.33
2022-08-23T19:57:35.333Z,2.40
2022-08-23T20:00:07.480Z,2.40
2022-08-23T20:02:34.326Z,2.55
2022-08-23T20:05:01.131Z,2.60
2022-08-23T20:07:28.035Z,2.28
2022-08-23T20:09:57.339Z,2.53
2022-08-23T20:12:25.931Z,2.95
2022-08-23T20:14:53.320Z,3.00
2022-08-23T20:17:20.370Z,3.05
2022-08-23T20:19:47.195Z,3.20
2022-08-23T20:22:32.925Z,3.55
2022-08-23T20:24:59.803Z,3.78
2022-08-23T20:27:30.905Z,4.20
2022-08-23T20:29:59.917Z,3.42
2022-08-23T20:32:27.572Z,3.33
2022-08-23T20:34:54.508Z,3.00
2022-08-23T20:37:21.703Z,3.33
2022-08-23T20:39:48.636Z,3.00
2022-08-23T20:42:15.676Z,2.88
2022-08-23T20:44:42.507Z,2.88
2022-08-23T20:47:09.643Z,2.67
2022-08-23T20:49:36.996Z,2.50
2022-08-23T20:52:04.055Z,2.90
2022-08-23T20:54:31.059Z,3.00
2022-08-23T20:56:58.039Z,2.85
2022-08-23T20:59:24.921Z,2.60
2022-08-23T21:01:52.197Z,2.50
2022-08-23T21:04:19.770Z,2.30
2022-08-23T21:06:51.704Z,2.75
2022-08-23T21:09:23.590Z,2.60
2022-08-23T21:11:55.844Z,2.42
2022-08-23T21:14:23.090Z,2.42
2022-08-23T21:16:49.897Z,2.45
2022-08-23T21:19:17.325Z,2.50
2022-08-23T21:21:44.582Z,2.30
2022-08-23T21:24:12.447Z,2.80
2022-08-23T21:26:40.171Z,2.28
2022-08-23T21:29:08.372Z,2.10
2022-08-23T21:31:35.622Z,2.33
2022-08-23T21:34:02.708Z,2.30
2022-08-23T21:36:30.379Z,2.47
2022-08-23T21:38:57.286Z,2.35
2022-08-23T21:41:40.937Z,2.67
2022-08-23T21:44:11.359Z,2.55
2022-08-23T21:46:38.485Z,2.42
2022-08-23T21:49:06.572Z,2.50
2022-08-23T21:51:34.927Z,2.58
2022-08-23T21:54:02.833Z,2.53
2022-08-23T21:56:30.234Z,2.75
2022-08-23T21:59:01.618Z,2.30
2022-08-23T22:01:30.455Z,2.40
2022-08-23T22:03:57.473Z,2.45
2022-08-23T22:06:24.514Z,2.60
2022-08-23T22:08:51.382Z,2.50
2022-08-23T22:11:18.257Z,2.38
2022-08-23T22:13:45.280Z,2.55
2022-08-23T22:16:12.246Z,2.60
2022-08-23T22:18:39.132Z,2.50
2022-08-23T22:21:07.029Z,2.80
2022-08-23T22:23:36.340Z,2.50
2022-08-23T22:26:07.773Z,2.88
2022-08-23T22:28:36.032Z,2.70
2022-08-23T22:31:05.648Z,2.80
2022-08-23T22:33:33.156Z,2.80
2022-08-23T22:36:06.653Z,2.63
2022-08-23T22:38:33.696Z,2.70
2022-08-23T22:41:01.065Z,2.70
2022-08-23T22:43:27.892Z,2.78
2022-08-23T22:46:00.909Z,2.63
2022-08-23T22:48:30.336Z,2.80
2022-08-23T22:51:24.867Z,2.70
2022-08-23T22:53:56.112Z,2.38
2022-08-23T22:56:32.495Z,2.53
2022-08-23T22:58:59.956Z,2.00
2022-08-23T23:01:34.933Z,2.65
2022-08-23T23:04:03.095Z,2.60
2022-08-23T23:06:30.805Z,2.72
2022-08-23T23:08:57.600Z,2.72
2022-08-23T23:11:25.031Z,2.72
2022-08-23T23:13:52.212Z,2.70
2022-08-23T23:16:22.980Z,2.60
2022-08-23T23:19:09.174Z,2.60
2022-08-23T23:21:42.609Z,2.80
2022-08-23T23:24:12.022Z,2.70
2022-08-23T23:26:38.874Z,2.65
2022-08-23T23:29:06.548Z,2.92
2022-08-23T23:31:34.906Z,2.83
2022-08-23T23:34:01.857Z,2.70
2022-08-23T23:36:28.993Z,2.88
2022-08-23T23:38:56.399Z,2.53
2022-08-23T23:41:23.567Z,2.92
2022-08-23T23:43:50.366Z,2.95
2022-08-23T23:46:19.022Z,2.65
2022-08-23T23:48:48.099Z,2.80
2022-08-23T23:51:21.245Z,2.90
2022-08-23T23:53:48.438Z,2.72
2022-08-23T23:56:16.761Z,2.53
2022-08-23T23:58:44.721Z,2.95
